Time;durP1;ratioP1;P1;durP2;ratioP2;P2;SDS_P1;SDS_P2;PMS_P1;PMS_P2;Temp;Humidity;BMP_temperature;BMP_pressure;BME280_temperature;BME280_humidity;BME280_pressure;Samples;Min_cycle;Max_cycle;Signal;HPM_P1;HPM_P2
2021/10/06 00:12:04;;;;;;;14.70;6.80;;;;;;;16.29;72.93;100195.61;712731;1203;114663;-74
2021/10/06 00:27:06;;;;;;;16.35;7.20;;;;;;;16.12;73.55;100200.98;712694;1202;115502;-73
2021/10/06 00:42:08;;;;;;;15.60;7.08;;;;;;;16.00;73.87;100201.57;712595;1202;114245;-73
2021/10/06 00:57:11;;;;;;;13.93;6.90;;;;;;;15.79;74.41;100202.94;712796;1202;114174;-73
2021/10/06 01:12:13;;;;;;;11.25;7.03;;;;;;;15.60;74.83;100218.20;712824;1203;115231;-73
2021/10/06 01:27:16;;;;;;;18.37;6.17;;;;;;;15.36;75.25;100203.24;712572;1180;114574;-73
2021/10/06 01:42:18;;;;;;;12.77;7.70;;;;;;;15.20;75.89;100227.03;712908;1202;114646;-73
2021/10/06 01:57:22;;;;;;;14.45;6.40;;;;;;;15.19;77.29;100220.09;712763;1178;114740;-73
2021/10/06 02:12:24;;;;;;;13.63;6.40;;;;;;;15.08;77.61;100224.72;712457;1178;114445;-73
2021/10/06 02:27:26;;;;;;;15.30;7.60;;;;;;;15.19;78.01;100238.59;712498;1202;114299;-73
2021/10/06 02:42:28;;;;;;;16.75;8.08;;;;;;;15.06;78.98;100247.85;712728;1207;115589;-73
2021/10/06 02:57:30;;;;;;;14.83;7.00;;;;;;;15.07;79.29;100238.95;713369;1202;114957;-73
2021/10/06 03:12:32;;;;;;;18.20;7.47;;;;;;;15.13;79.45;100269.97;714327;1206;116263;-83
2021/10/06 03:27:34;;;;;;;13.18;6.45;;;;;;;15.10;80.46;100286.16;714751;1206;114192;-74
2021/10/06 03:42:38;;;;;;;13.65;6.68;;;;;;;15.03;80.38;100279.05;715603;1202;114088;-70
2021/10/06 03:57:40;;;;;;;12.13;6.57;;;;;;;14.71;81.70;100288.59;712821;1180;114382;-72
2021/10/06 04:12:42;;;;;;;304.97;143.13;;;;;;;14.58;81.65;100291.66;712888;1200;114676;-71
2021/10/06 04:27:44;;;;;;;69.87;20.20;;;;;;;14.38;83.27;100307.76;712585;1203;115356;-72
2021/10/06 04:42:47;;;;;;;27.47;10.50;;;;;;;14.22;83.71;100328.81;712873;1203;116169;-71
2021/10/06 04:57:49;;;;;;;19.93;9.30;;;;;;;14.06;84.56;100351.48;712560;1203;114807;-71
2021/10/06 05:12:51;;;;;;;19.73;8.55;;;;;;;14.05;85.15;100357.73;712387;1203;114383;-71
2021/10/06 05:27:53;;;;;;;19.50;8.60;;;;;;;13.88;85.32;100390.27;712338;1202;115023;-71
2021/10/06 05:42:56;;;;;;;26.83;11.87;;;;;;;13.72;86.09;100407.61;712425;1203;114568;-71
2021/10/06 05:58:00;;;;;;;14.35;8.78;;;;;;;13.84;86.13;100405.56;712626;1205;114843;-70
2021/10/06 06:13:02;;;;;;;14.30;7.75;;;;;;;13.98;85.82;100430.56;712537;1202;115770;-73
2021/10/06 06:28:04;;;;;;;13.70;8.65;;;;;;;14.19;85.14;100455.77;712468;1202;114473;-70
2021/10/06 06:43:09;;;;;;;19.60;8.50;;;;;;;14.37;84.73;100467.11;712539;1203;114681;-70
2021/10/06 06:58:11;;;;;;;26.95;21.35;;;;;;;14.70;84.48;100480.52;712756;1202;114607;-70
2021/10/06 07:13:13;;;;;;;20.20;8.20;;;;;;;15.25;83.96;100507.47;712460;1202;114884;-72
2021/10/06 07:28:17;;;;;;;13.63;7.60;;;;;;;15.31;82.60;100526.16;714374;1202;115156;-80
2021/10/06 07:43:23;;;;;;;19.60;9.80;;;;;;;15.33;82.80;100536.56;713381;1194;114084;-74
2021/10/06 07:58:25;;;;;;;17.28;10.63;;;;;;;15.36;82.30;100560.05;712970;1202;115602;-73
2021/10/06 08:13:29;;;;;;;15.25;8.98;;;;;;;15.64;83.23;100551.87;712586;1202;114995;-83
2021/10/06 08:28:31;;;;;;;11.53;7.35;;;;;;;15.75;83.31;100575.34;713152;1203;115182;-82
2021/10/06 08:43:38;;;;;;;19.00;10.07;;;;;;;15.72;84.42;100557.17;712897;1203;114366;-81
2021/10/06 08:58:41;;;;;;;19.87;10.63;;;;;;;15.40;90.09;100576.40;713662;1202;115437;-81
2021/10/06 09:13:43;;;;;;;15.50;10.57;;;;;;;15.00;95.80;100591.09;713314;1202;114876;-80
2021/10/06 09:28:50;;;;;;;17.25;10.03;;;;;;;14.85;100.00;100612.80;713574;1203;114699;-79
2021/10/06 09:44:21;;;;;;;16.37;10.30;;;;;;;14.52;100.00;100636.28;713800;1203;114971;-81
2021/10/06 09:59:25;;;;;;;21.53;12.80;;;;;;;14.31;100.00;100631.33;713757;1202;115309;-81
2021/10/06 10:14:27;;;;;;;25.75;15.55;;;;;;;14.21;100.00;100649.84;714323;1202;115582;-81
2021/10/06 10:30:05;;;;;;;60.88;33.60;;;;;;;14.17;100.00;100660.87;723846;1202;113451;-80
2021/10/06 10:45:40;;;;;;;31.10;20.00;;;;;;;14.46;100.00;100679.12;718558;1180;114940;-80
2021/10/06 11:00:43;;;;;;;25.45;17.40;;;;;;;14.66;100.00;100710.67;715694;1202;115651;-81
2021/10/06 11:15:47;;;;;;;24.85;14.65;;;;;;;14.74;100.00;100735.36;714759;1202;116109;-81
2021/10/06 11:30:58;;;;;;;25.83;15.47;;;;;;;14.67;100.00;100744.84;716038;1202;115824;-79
2021/10/06 11:46:01;;;;;;;27.78;17.00;;;;;;;14.42;100.00;100763.04;716450;1206;114994;-79
2021/10/06 12:01:09;;;;;;;24.57;14.83;;;;;;;14.30;100.00;100772.16;714525;1203;114761;-80
2021/10/06 12:16:27;;;;;;;25.77;14.27;;;;;;;14.22;100.00;100790.54;713467;1203;115970;-79
2021/10/06 12:31:31;;;;;;;29.13;16.40;;;;;;;14.16;100.00;100794.61;713531;1203;114919;-81
2021/10/06 12:46:34;;;;;;;52.50;27.67;;;;;;;14.19;100.00;100798.76;712976;1180;114422;-80
2021/10/06 13:01:42;;;;;;;80.95;45.13;;;;;;;14.19;100.00;100819.86;713343;1180;114203;-80
2021/10/06 13:16:46;;;;;;;35.13;19.83;;;;;;;14.31;100.00;100823.96;713532;1192;114402;-80
2021/10/06 13:31:49;;;;;;;207.00;91.63;;;;;;;14.58;100.00;100832.84;713003;1180;114530;-80
2021/10/06 13:46:51;;;;;;;25.80;17.23;;;;;;;14.67;100.00;100844.36;713448;1203;114789;-80
2021/10/06 14:01:54;;;;;;;32.50;17.48;;;;;;;14.64;100.00;100854.23;713593;1203;115407;-80
2021/10/06 14:16:57;;;;;;;29.07;17.20;;;;;;;14.68;100.00;100853.95;724042;1180;114745;-84
2021/10/06 14:32:01;;;;;;;24.63;14.80;;;;;;;14.77;100.00;100872.37;712716;1202;115849;-82
2021/10/06 14:47:04;;;;;;;30.30;16.27;;;;;;;14.89;100.00;100885.38;712735;1202;115628;-82
2021/10/06 15:02:07;;;;;;;31.60;19.13;;;;;;;14.82;100.00;100900.99;713100;1202;115796;-82
2021/10/06 15:17:15;;;;;;;26.55;17.70;;;;;;;14.66;100.00;100928.02;713211;1203;116687;-82
2021/10/06 15:32:22;;;;;;;18.63;12.78;;;;;;;14.12;100.00;100947.07;713962;1203;115705;-83
2021/10/06 15:47:26;;;;;;;21.20;13.93;;;;;;;13.89;100.00;100951.82;714266;1181;114440;-77
2021/10/06 16:02:30;;;;;;;25.43;15.63;;;;;;;13.76;100.00;100962.64;713019;1202;114960;-78
2021/10/06 16:17:35;;;;;;;31.45;15.50;;;;;;;13.71;100.00;100980.72;713219;1202;115449;-77
2021/10/06 16:32:41;;;;;;;36.30;25.93;;;;;;;13.62;100.00;101018.45;713921;1183;114655;-78
2021/10/06 16:47:44;;;;;;;29.80;17.70;;;;;;;13.62;100.00;101023.73;714453;1186;115574;-82
2021/10/06 17:02:48;;;;;;;39.90;25.60;;;;;;;13.66;100.00;101030.39;713168;1181;114555;-80
2021/10/06 17:17:51;;;;;;;48.60;29.83;;;;;;;13.68;100.00;101043.43;712964;1202;114969;-83
2021/10/06 17:32:57;;;;;;;97.73;51.33;;;;;;;13.69;100.00;101061.74;712861;1203;114683;-78
2021/10/06 17:48:03;;;;;;;40.47;24.57;;;;;;;13.70;100.00;101073.11;712991;1203;115715;-78
2021/10/06 18:03:07;;;;;;;50.33;27.97;;;;;;;13.77;100.00;101080.34;713271;1203;114969;-78
2021/10/06 18:18:15;;;;;;;62.93;35.20;;;;;;;13.75;100.00;101089.36;713238;1202;114942;-77
2021/10/06 18:33:23;;;;;;;110.20;53.00;;;;;;;13.79;100.00;101102.15;712759;1201;115402;-78
2021/10/06 18:48:26;;;;;;;66.65;34.48;;;;;;;13.80;100.00;101100.34;713471;1207;114861;-78
2021/10/06 19:03:29;;;;;;;200.75;86.45;;;;;;;13.79;100.00;101115.33;713532;1202;115843;-78
2021/10/06 19:18:43;;;;;;;158.93;83.13;;;;;;;13.79;100.00;101133.80;713442;1203;115656;-77
2021/10/06 19:33:48;;;;;;;78.13;41.50;;;;;;;13.78;100.00;101139.20;712976;1202;115679;-77
2021/10/06 19:48:53;;;;;;;90.13;47.00;;;;;;;13.74;100.00;101157.09;712728;1202;115647;-78
2021/10/06 20:04:01;;;;;;;114.70;56.57;;;;;;;13.71;100.00;101164.43;712619;1203;115315;-77
2021/10/06 20:19:04;;;;;;;73.73;39.17;;;;;;;13.72;100.00;101177.47;712752;1202;116053;-78
2021/10/06 20:49:33;;;;;;;38.25;20.65;;;;;;;13.52;100.00;101192.39;712436;1184;114857;-78
2021/10/06 21:04:36;;;;;;;30.03;17.43;;;;;;;13.40;100.00;101199.55;713097;1205;115373;-78
2021/10/06 21:19:38;;;;;;;35.95;19.53;;;;;;;13.22;100.00;101214.27;712653;1205;115843;-77
2021/10/06 21:34:40;;;;;;;24.50;14.97;;;;;;;13.04;100.00;101222.77;713047;1202;115646;-76
2021/10/06 21:49:42;;;;;;;35.55;16.35;;;;;;;12.91;100.00;101230.02;712609;1180;114590;-78
2021/10/06 22:04:45;;;;;;;24.77;13.10;;;;;;;12.73;100.00;101242.90;712916;1202;114984;-77
2021/10/06 22:19:47;;;;;;;44.50;19.68;;;;;;;12.67;100.00;101252.14;712907;1202;115077;-78
2021/10/06 22:34:49;;;;;;;22.50;11.60;;;;;;;12.67;100.00;101261.81;713040;1199;114549;-78
2021/10/06 22:49:51;;;;;;;20.90;11.43;;;;;;;12.58;100.00;101282.67;712982;1202;114886;-79
2021/10/06 23:04:53;;;;;;;24.40;11.37;;;;;;;12.54;100.00;101296.22;713427;1180;114533;-76
2021/10/06 23:19:58;;;;;;;20.70;12.18;;;;;;;12.37;100.00;101306.28;712962;1202;114501;-78
2021/10/06 23:35:04;;;;;;;20.90;10.13;;;;;;;12.32;100.00;101314.52;712890;1203;115771;-78
2021/10/06 23:50:07;;;;;;;16.03;9.33;;;;;;;12.21;100.00;101330.34;712656;1185;114948;-77
